Time;durP1;ratioP1;P1;durP2;ratioP2;P2;SDS_P1;SDS_P2;PMS_P1;PMS_P2;Temp;Humidity;BMP_temperature;BMP_pressure;BME280_temperature;BME280_humidity;BME280_pressure;Samples;Min_cycle;Max_cycle;Signal;HPM_P1;HPM_P2
2023/09/03 00:01:13;;;;;;;14.43;2.92;;;;;;;;;;5018572;28;20293;-78
2023/09/03 00:03:40;;;;;;;35.33;7.18;;;;;;;;;;5013204;28;20236;-77
2023/09/03 00:06:06;;;;;;;19.55;3.92;;;;;;;;;;5016612;28;20239;-77
2023/09/03 00:08:33;;;;;;;21.75;4.18;;;;;;;;;;5017556;28;20246;-78
2023/09/03 00:11:00;;;;;;;18.63;3.60;;;;;;;;;;5008320;28;20239;-77
2023/09/03 00:13:26;;;;;;;16.77;3.30;;;;;;;;;;5018876;28;20223;-78
2023/09/03 00:15:53;;;;;;;56.17;12.35;;;;;;;;;;5011741;28;20281;-77
2023/09/03 00:18:19;;;;;;;21.35;4.18;;;;;;;;;;5014748;28;20306;-77
2023/09/03 00:21:01;;;;;;;62.33;13.00;;;;;;;;;;5006125;28;20230;-77
2023/09/03 00:23:28;;;;;;;19.88;3.83;;;;;;;;;;5012263;28;20313;-78
2023/09/03 00:25:56;;;;;;;51.75;11.43;;;;;;;;;;5010737;28;20257;-78
2023/09/03 00:28:23;;;;;;;21.00;9.02;;;;;;;;;;5020462;28;20234;-77
2023/09/03 00:31:07;;;;;;;48.15;14.45;;;;;;;;;;5013307;28;20235;-78
2023/09/03 00:33:35;;;;;;;23.15;4.57;;;;;;;;;;5007387;28;20311;-77
2023/09/03 00:36:03;;;;;;;23.52;6.05;;;;;;;;;;5013003;28;20289;-78
2023/09/03 00:38:29;;;;;;;25.65;4.85;;;;;;;;;;5018518;28;20325;-77
2023/09/03 00:40:56;;;;;;;44.38;10.52;;;;;;;;;;5011779;28;20245;-77
2023/09/03 00:43:22;;;;;;;23.20;4.38;;;;;;;;;;5017680;28;20235;-77
2023/09/03 00:45:49;;;;;;;38.30;9.18;;;;;;;;;;5008754;28;20235;-78
2023/09/03 00:48:17;;;;;;;24.05;4.72;;;;;;;;;;5016889;28;20223;-78
2023/09/03 00:50:46;;;;;;;49.60;11.35;;;;;;;;;;5012521;28;20228;-77
2023/09/03 00:53:13;;;;;;;27.30;5.55;;;;;;;;;;5017983;28;20231;-78
2023/09/03 00:55:40;;;;;;;31.80;6.25;;;;;;;;;;5013962;28;20243;-77
2023/09/03 00:58:07;;;;;;;27.17;5.35;;;;;;;;;;5016113;28;20235;-77
2023/09/03 01:00:35;;;;;;;28.35;5.50;;;;;;;;;;5012320;28;20591;-77
2023/09/03 01:03:02;;;;;;;20.92;4.13;;;;;;;;;;4999671;28;20236;-78
2023/09/03 01:05:28;;;;;;;24.52;5.05;;;;;;;;;;5019365;28;20227;-78
2023/09/03 01:07:55;;;;;;;39.72;10.75;;;;;;;;;;5010847;28;20273;-77
2023/09/03 01:10:24;;;;;;;37.92;12.82;;;;;;;;;;5013252;28;20231;-78
2023/09/03 01:12:59;;;;;;;41.10;16.13;;;;;;;;;;5007419;28;20285;-77
2023/09/03 01:15:28;;;;;;;30.42;12.40;;;;;;;;;;5005693;28;20234;-77
2023/09/03 01:18:16;;;;;;;54.10;13.45;;;;;;;;;;5022221;28;20242;-78
2023/09/03 01:20:48;;;;;;;78.68;19.27;;;;;;;;;;5008653;28;20227;-77
2023/09/03 01:23:18;;;;;;;26.65;6.60;;;;;;;;;;5013665;28;20231;-77
2023/09/03 01:25:44;;;;;;;100.45;91.05;;;;;;;;;;5011322;28;20233;-78
2023/09/03 01:28:22;;;;;;;116.53;107.85;;;;;;;;;;5002800;28;20277;-79
2023/09/03 01:30:50;;;;;;;207.80;191.88;;;;;;;;;;5018687;28;20239;-78
2023/09/03 01:33:17;;;;;;;312.58;296.38;;;;;;;;;;5014161;28;20239;-78
2023/09/03 01:35:44;;;;;;;95.47;86.38;;;;;;;;;;5013852;28;20235;-78
2023/09/03 01:38:10;;;;;;;205.23;194.65;;;;;;;;;;5015092;28;20721;-77
2023/09/03 01:40:40;;;;;;;60.15;52.50;;;;;;;;;;5013494;28;20732;-79
2023/09/03 01:43:06;;;;;;;105.45;98.47;;;;;;;;;;5013124;28;20242;-78
2023/09/03 01:45:44;;;;;;;49.65;44.65;;;;;;;;;;5014939;28;20609;-78
2023/09/03 01:48:14;;;;;;;108.35;101.20;;;;;;;;;;5015035;28;20226;-78
2023/09/03 01:50:46;;;;;;;113.93;105.13;;;;;;;;;;5008749;28;20231;-77
2023/09/03 01:53:16;;;;;;;112.15;104.93;;;;;;;;;;5019140;28;20223;-77
2023/09/03 01:55:47;;;;;;;80.50;73.07;;;;;;;;;;5011935;28;20235;-77
2023/09/03 01:58:14;;;;;;;90.20;84.57;;;;;;;;;;5015909;28;20242;-78
2023/09/03 02:00:41;;;;;;;56.40;24.25;;;;;;;;;;5009503;28;20314;-77
2023/09/03 02:03:09;;;;;;;26.73;22.25;;;;;;;;;;5018197;28;20230;-77
2023/09/03 02:05:36;;;;;;;26.17;17.85;;;;;;;;;;5016980;28;20242;-77
2023/09/03 02:08:03;;;;;;;33.28;11.25;;;;;;;;;;5013879;28;20239;-77
2023/09/03 02:10:29;;;;;;;36.55;33.42;;;;;;;;;;5012531;28;20599;-77
2023/09/03 02:12:56;;;;;;;52.97;15.35;;;;;;;;;;5007781;28;20230;-77
2023/09/03 02:15:22;;;;;;;30.35;22.83;;;;;;;;;;5020276;28;20235;-77
2023/09/03 02:17:49;;;;;;;48.88;12.30;;;;;;;;;;5004012;28;20236;-77
2023/09/03 02:20:16;;;;;;;36.42;7.13;;;;;;;;;;5011502;28;20243;-78
2023/09/03 02:22:42;;;;;;;52.03;16.27;;;;;;;;;;5005513;28;20612;-79
2023/09/03 02:25:09;;;;;;;33.42;10.35;;;;;;;;;;5012464;28;20234;-77
2023/09/03 02:27:35;;;;;;;41.58;28.30;;;;;;;;;;5013596;28;20308;-77
2023/09/03 02:30:02;;;;;;;24.02;5.85;;;;;;;;;;5008234;28;20603;-78
2023/09/03 02:32:28;;;;;;;15.93;3.38;;;;;;;;;;5014729;28;20244;-80
2023/09/03 02:34:55;;;;;;;40.72;10.02;;;;;;;;;;5007540;28;20231;-77
2023/09/03 02:37:22;;;;;;;14.82;3.05;;;;;;;;;;5016841;28;20238;-77
2023/09/03 02:39:48;;;;;;;47.40;12.43;;;;;;;;;;5006935;28;20223;-77
2023/09/03 02:42:16;;;;;;;43.92;39.47;;;;;;;;;;5011790;28;20385;-77
2023/09/03 02:44:42;;;;;;;62.28;34.53;;;;;;;;;;5016418;28;20230;-77
2023/09/03 02:47:09;;;;;;;33.55;20.48;;;;;;;;;;5019032;28;20326;-77
2023/09/03 02:49:36;;;;;;;46.67;28.92;;;;;;;;;;5017800;28;20227;-77
2023/09/03 02:52:02;;;;;;;38.85;28.65;;;;;;;;;;5010224;28;20246;-77
2023/09/03 02:54:29;;;;;;;40.08;22.25;;;;;;;;;;5019622;28;20223;-78
2023/09/03 02:56:56;;;;;;;52.88;14.23;;;;;;;;;;5009640;28;20611;-77
2023/09/03 02:59:22;;;;;;;55.20;49.72;;;;;;;;;;5014812;28;20227;-77
2023/09/03 03:01:49;;;;;;;59.08;48.47;;;;;;;;;;5007230;28;20246;-78
2023/09/03 03:04:15;;;;;;;102.78;96.10;;;;;;;;;;5015285;28;20231;-78
2023/09/03 03:06:42;;;;;;;77.72;67.13;;;;;;;;;;5007612;28;20226;-79
2023/09/03 03:09:08;;;;;;;57.15;51.65;;;;;;;;;;5018139;28;20227;-77
2023/09/03 03:11:35;;;;;;;214.55;202.70;;;;;;;;;;5013882;28;20238;-77
2023/09/03 03:14:02;;;;;;;110.20;102.97;;;;;;;;;;5008471;28;20226;-79
2023/09/03 03:16:29;;;;;;;205.38;193.52;;;;;;;;;;5016931;28;20235;-77
2023/09/03 03:18:55;;;;;;;172.98;161.05;;;;;;;;;;5006595;28;20219;-78
2023/09/03 03:21:22;;;;;;;92.78;86.63;;;;;;;;;;5017751;28;20235;-78
2023/09/03 03:23:50;;;;;;;63.40;52.53;;;;;;;;;;5010684;28;20934;-78
2023/09/03 03:26:17;;;;;;;45.15;40.65;;;;;;;;;;5020155;28;20690;-77
2023/09/03 03:28:44;;;;;;;92.20;83.68;;;;;;;;;;5011463;28;20236;-77
2023/09/03 03:31:14;;;;;;;77.40;71.20;;;;;;;;;;5014814;28;20242;-77
2023/09/03 03:33:42;;;;;;;80.45;72.55;;;;;;;;;;5015331;28;20719;-77
2023/09/03 03:36:16;;;;;;;53.47;48.50;;;;;;;;;;5020633;28;20292;-78
2023/09/03 03:38:43;;;;;;;70.38;46.15;;;;;;;;;;5010608;28;20239;-77
2023/09/03 03:41:14;;;;;;;187.32;176.65;;;;;;;;;;5015087;28;20247;-77
2023/09/03 03:43:41;;;;;;;157.90;147.00;;;;;;;;;;5007659;28;20644;-77
2023/09/03 03:46:09;;;;;;;155.57;146.48;;;;;;;;;;5025906;28;20249;-77
2023/09/03 03:48:36;;;;;;;130.93;121.72;;;;;;;;;;5020594;28;20231;-78
2023/09/03 03:51:03;;;;;;;188.73;178.55;;;;;;;;;;5016674;28;20282;-77
2023/09/03 03:53:29;;;;;;;173.07;163.10;;;;;;;;;;5018564;28;20255;-79
2023/09/03 03:55:59;;;;;;;291.08;272.05;;;;;;;;;;5014523;28;20234;-77
2023/09/03 03:58:28;;;;;;;332.40;315.63;;;;;;;;;;5023298;28;20642;-77
2023/09/03 04:00:54;;;;;;;286.55;269.55;;;;;;;;;;5015523;28;20304;-77
2023/09/03 04:03:22;;;;;;;217.35;204.98;;;;;;;;;;5018846;28;20313;-76
2023/09/03 04:05:56;;;;;;;178.68;165.95;;;;;;;;;;5012813;28;20777;-78
2023/09/03 04:08:23;;;;;;;215.57;204.23;;;;;;;;;;5020085;28;20234;-77
2023/09/03 04:10:56;;;;;;;125.75;115.72;;;;;;;;;;5042000;28;20229;-77
2023/09/03 04:13:24;;;;;;;233.90;221.73;;;;;;;;;;5020730;28;20230;-77
2023/09/03 04:15:51;;;;;;;68.82;47.92;;;;;;;;;;5012873;28;20697;-77
2023/09/03 04:18:18;;;;;;;225.70;214.13;;;;;;;;;;5022839;28;20239;-78
2023/09/03 04:20:45;;;;;;;94.65;68.47;;;;;;;;;;5008534;28;20262;-77
2023/09/03 04:23:11;;;;;;;280.73;265.73;;;;;;;;;;5020374;28;20235;-78
2023/09/03 04:25:38;;;;;;;146.90;137.30;;;;;;;;;;5018376;28;20289;-80
2023/09/03 04:28:05;;;;;;;291.77;277.15;;;;;;;;;;5023152;28;20238;-77
2023/09/03 04:30:31;;;;;;;194.25;182.73;;;;;;;;;;5018282;28;20250;-77
2023/09/03 04:32:58;;;;;;;195.27;184.13;;;;;;;;;;5013527;28;20234;-77
2023/09/03 04:35:25;;;;;;;389.00;369.50;;;;;;;;;;5020719;28;20235;-77
2023/09/03 04:37:51;;;;;;;400.65;377.20;;;;;;;;;;5009761;28;20623;-77
2023/09/03 04:40:18;;;;;;;334.65;315.98;;;;;;;;;;5017180;28;20298;-77
2023/09/03 04:42:47;;;;;;;258.55;241.27;;;;;;;;;;5019507;28;20238;-78
2023/09/03 04:45:14;;;;;;;390.83;370.30;;;;;;;;;;5024371;28;20226;-77
2023/09/03 04:47:40;;;;;;;289.25;272.80;;;;;;;;;;5016253;28;20230;-77
2023/09/03 04:50:07;;;;;;;355.65;336.15;;;;;;;;;;5033114;28;20681;-77
2023/09/03 04:52:34;;;;;;;194.85;181.73;;;;;;;;;;5014712;28;20223;-78
2023/09/03 04:55:00;;;;;;;129.43;121.28;;;;;;;;;;5003694;28;20298;-77
2023/09/03 04:57:28;;;;;;;80.47;75.10;;;;;;;;;;5015870;28;20228;-78
2023/09/03 04:59:54;;;;;;;46.00;15.88;;;;;;;;;;5013669;28;20234;-77
2023/09/03 05:02:21;;;;;;;26.73;5.32;;;;;;;;;;5014286;28;20270;-77
2023/09/03 05:04:47;;;;;;;41.92;10.05;;;;;;;;;;5007822;28;20243;-78
2023/09/03 05:07:14;;;;;;;23.85;4.97;;;;;;;;;;5035538;28;20242;-79
2023/09/03 05:09:40;;;;;;;25.65;5.53;;;;;;;;;;5010814;28;20235;-77
2023/09/03 05:12:07;;;;;;;17.02;6.40;;;;;;;;;;5019580;28;20682;-78
2023/09/03 05:14:34;;;;;;;18.27;4.20;;;;;;;;;;5011653;28;20231;-77
2023/09/03 05:17:00;;;;;;;19.75;4.18;;;;;;;;;;5013585;28;20234;-79
2023/09/03 05:19:27;;;;;;;22.35;4.93;;;;;;;;;;5015283;28;20694;-78
2023/09/03 05:21:53;;;;;;;41.80;10.13;;;;;;;;;;5016162;28;20246;-78
2023/09/03 05:24:20;;;;;;;28.48;6.05;;;;;;;;;;5015856;28;20297;-78
2023/09/03 05:26:48;;;;;;;45.13;10.45;;;;;;;;;;5012144;28;20234;-77
2023/09/03 05:29:14;;;;;;;21.40;4.47;;;;;;;;;;5012338;28;20238;-77
2023/09/03 05:31:41;;;;;;;28.98;6.97;;;;;;;;;;5011767;28;20227;-78
2023/09/03 05:34:08;;;;;;;25.13;5.45;;;;;;;;;;5015670;28;20293;-79
2023/09/03 05:36:35;;;;;;;18.52;4.03;;;;;;;;;;5022533;28;20220;-78
2023/09/03 05:39:02;;;;;;;14.30;3.25;;;;;;;;;;5013086;28;20296;-79
2023/09/03 05:41:28;;;;;;;20.52;4.28;;;;;;;;;;5018392;28;20721;-78
2023/09/03 05:43:55;;;;;;;32.50;8.60;;;;;;;;;;5017673;28;20229;-78
2023/09/03 05:46:22;;;;;;;24.75;5.07;;;;;;;;;;5013212;28;20248;-80
2023/09/03 05:48:49;;;;;;;42.90;10.70;;;;;;;;;;5010028;28;20602;-78
2023/09/03 05:51:16;;;;;;;12.07;2.95;;;;;;;;;;5017377;28;20234;-78
2023/09/03 05:53:43;;;;;;;29.27;7.38;;;;;;;;;;5009758;28;20234;-77
2023/09/03 05:56:10;;;;;;;15.10;3.45;;;;;;;;;;5010501;28;20234;-78
2023/09/03 05:58:37;;;;;;;30.02;6.43;;;;;;;;;;5014272;28;20658;-79
2023/09/03 06:01:05;;;;;;;18.52;3.83;;;;;;;;;;5016020;28;20228;-79
2023/09/03 06:03:31;;;;;;;16.80;3.63;;;;;;;;;;5017376;28;20281;-79
2023/09/03 06:06:04;;;;;;;14.98;3.17;;;;;;;;;;5010072;28;20239;-79
2023/09/03 06:08:31;;;;;;;19.73;4.35;;;;;;;;;;5014958;28;20231;-80
2023/09/03 06:10:58;;;;;;;15.20;3.47;;;;;;;;;;5014240;28;20258;-79
2023/09/03 06:13:28;;;;;;;17.60;4.95;;;;;;;;;;5019578;28;20243;-78
2023/09/03 06:15:55;;;;;;;37.17;9.70;;;;;;;;;;5017734;28;20265;-79
2023/09/03 06:18:22;;;;;;;24.15;4.78;;;;;;;;;;5003549;28;20334;-79
2023/09/03 06:20:49;;;;;;;38.72;13.20;;;;;;;;;;5011437;28;20235;-79
2023/09/03 06:23:18;;;;;;;17.13;3.50;;;;;;;;;;5015586;28;20231;-79
2023/09/03 06:25:46;;;;;;;48.97;12.38;;;;;;;;;;5013878;28;20284;-78
2023/09/03 06:28:12;;;;;;;17.10;3.78;;;;;;;;;;5014123;28;20258;-79
2023/09/03 06:30:39;;;;;;;24.83;4.97;;;;;;;;;;5010958;28;20251;-79
2023/09/03 06:33:06;;;;;;;19.15;4.22;;;;;;;;;;5014866;28;20255;-79
2023/09/03 06:35:33;;;;;;;17.83;3.95;;;;;;;;;;5022997;28;20227;-79
2023/09/03 06:38:00;;;;;;;20.17;4.63;;;;;;;;;;5010952;28;20297;-79
2023/09/03 06:40:27;;;;;;;21.98;4.78;;;;;;;;;;5015992;28;20250;-79
2023/09/03 06:42:53;;;;;;;39.88;10.68;;;;;;;;;;5015931;28;20247;-79
2023/09/03 06:45:20;;;;;;;17.13;3.65;;;;;;;;;;5020005;28;20300;-79
2023/09/03 06:47:47;;;;;;;36.65;8.55;;;;;;;;;;5015786;28;20235;-79
2023/09/03 06:50:14;;;;;;;15.50;3.15;;;;;;;;;;5014774;28;20369;-79
2023/09/03 06:52:40;;;;;;;27.95;6.05;;;;;;;;;;5014299;28;20253;-79
2023/09/03 06:55:07;;;;;;;16.60;3.38;;;;;;;;;;5026744;28;20237;-78
2023/09/03 06:57:33;;;;;;;24.08;5.00;;;;;;;;;;5023910;28;20301;-78
2023/09/03 07:00:05;;;;;;;18.85;3.97;;;;;;;;;;5012849;28;20650;-77
2023/09/03 07:02:32;;;;;;;22.77;4.72;;;;;;;;;;5020495;28;20238;-78
2023/09/03 07:05:00;;;;;;;20.33;4.28;;;;;;;;;;5011169;28;20285;-78
2023/09/03 07:07:27;;;;;;;18.90;4.32;;;;;;;;;;5023591;28;20223;-78
2023/09/03 07:09:54;;;;;;;40.42;9.63;;;;;;;;;;5000370;28;20227;-78
2023/09/03 07:12:21;;;;;;;10.57;2.47;;;;;;;;;;5019066;28;20243;-78
2023/09/03 07:14:48;;;;;;;33.20;9.88;;;;;;;;;;5020056;28;20226;-78
2023/09/03 07:17:15;;;;;;;15.20;3.33;;;;;;;;;;5020703;28;20231;-80
2023/09/03 07:19:41;;;;;;;33.53;7.70;;;;;;;;;;5012695;28;20249;-77
2023/09/03 07:22:08;;;;;;;16.80;3.47;;;;;;;;;;5025045;28;20245;-82
2023/09/03 07:24:34;;;;;;;28.52;6.30;;;;;;;;;;5020022;28;20235;-78
2023/09/03 07:27:02;;;;;;;14.45;2.97;;;;;;;;;;5014486;28;20233;-78
2023/09/03 07:29:29;;;;;;;26.02;5.30;;;;;;;;;;5012568;28;20230;-78
2023/09/03 07:31:56;;;;;;;37.58;10.23;;;;;;;;;;5020643;28;20226;-78
2023/09/03 07:34:22;;;;;;;11.27;2.75;;;;;;;;;;5014116;28;20234;-78
2023/09/03 07:36:49;;;;;;;36.80;9.20;;;;;;;;;;5013362;28;20218;-79
2023/09/03 07:39:16;;;;;;;18.20;4.05;;;;;;;;;;5017212;28;20274;-79
2023/09/03 07:41:42;;;;;;;29.20;7.13;;;;;;;;;;5009489;28;20238;-78
2023/09/03 07:44:09;;;;;;;18.05;3.72;;;;;;;;;;5016850;28;20600;-78
2023/09/03 07:46:36;;;;;;;33.80;6.80;;;;;;;;;;5016114;28;20310;-77
2023/09/03 07:49:02;;;;;;;22.02;5.05;;;;;;;;;;5012621;28;20241;-78
2023/09/03 07:51:29;;;;;;;21.33;4.45;;;;;;;;;;5017722;28;20243;-78
2023/09/03 07:53:55;;;;;;;49.88;12.70;;;;;;;;;;5019748;28;20222;-80
2023/09/03 07:56:23;;;;;;;28.85;6.07;;;;;;;;;;5010845;28;20227;-77
2023/09/03 07:58:49;;;;;;;46.42;11.57;;;;;;;;;;5007975;28;20231;-78
2023/09/03 08:01:16;;;;;;;28.77;6.15;;;;;;;;;;5012863;28;20741;-79
2023/09/03 08:03:43;;;;;;;48.13;12.07;;;;;;;;;;5011891;28;20290;-77
2023/09/03 08:06:10;;;;;;;18.02;3.60;;;;;;;;;;5013844;28;20243;-78
2023/09/03 08:08:38;;;;;;;29.65;5.88;;;;;;;;;;5010321;28;20313;-78
2023/09/03 08:11:05;;;;;;;23.08;5.43;;;;;;;;;;5005114;28;20241;-77
2023/09/03 08:13:31;;;;;;;20.08;7.72;;;;;;;;;;5019879;28;20230;-77
2023/09/03 08:15:58;;;;;;;18.65;4.60;;;;;;;;;;5016286;28;20348;-79
2023/09/03 08:18:25;;;;;;;22.95;8.07;;;;;;;;;;5018598;28;20226;-78
2023/09/03 08:20:51;;;;;;;44.38;11.10;;;;;;;;;;5010869;28;20325;-77
2023/09/03 08:23:18;;;;;;;23.13;4.97;;;;;;;;;;5016338;28;20240;-78
2023/09/03 08:25:46;;;;;;;49.28;14.90;;;;;;;;;;5010771;28;20263;-77
2023/09/03 08:28:13;;;;;;;23.88;12.45;;;;;;;;;;5017628;28;20301;-78
2023/09/03 08:30:39;;;;;;;23.23;4.95;;;;;;;;;;5019539;28;20231;-78
2023/09/03 08:33:06;;;;;;;23.23;5.80;;;;;;;;;;5016801;28;20233;-79
2023/09/03 08:35:34;;;;;;;20.75;4.65;;;;;;;;;;5020100;28;20256;-79
2023/09/03 08:38:00;;;;;;;15.77;3.47;;;;;;;;;;5013065;28;20273;-79
2023/09/03 08:40:27;;;;;;;18.73;3.90;;;;;;;;;;5022322;28;20243;-78
2023/09/03 08:42:54;;;;;;;37.85;9.52;;;;;;;;;;5013995;28;20229;-78
2023/09/03 08:45:22;;;;;;;18.75;3.97;;;;;;;;;;5023382;28;20231;-79
2023/09/03 08:47:49;;;;;;;50.50;11.45;;;;;;;;;;5015063;28;20233;-79
2023/09/03 08:50:16;;;;;;;19.10;3.90;;;;;;;;;;5016046;28;20335;-79
2023/09/03 08:52:43;;;;;;;32.30;8.10;;;;;;;;;;5018069;28;20252;-79
2023/09/03 08:55:11;;;;;;;16.60;4.03;;;;;;;;;;5021267;28;20238;-80
2023/09/03 08:57:38;;;;;;;23.92;5.18;;;;;;;;;;5017286;28;20243;-84
2023/09/03 09:00:05;;;;;;;19.65;4.53;;;;;;;;;;5015523;28;20250;-82
2023/09/03 09:02:33;;;;;;;18.98;3.90;;;;;;;;;;5020110;28;20261;-81
2023/09/03 09:05:04;;;;;;;24.90;5.40;;;;;;;;;;5006405;28;20612;-81
2023/09/03 09:07:31;;;;;;;17.48;3.70;;;;;;;;;;5020068;28;20539;-81
2023/09/03 09:10:02;;;;;;;18.15;3.83;;;;;;;;;;5013599;28;20238;-79
2023/09/03 09:12:36;;;;;;;23.73;5.35;;;;;;;;;;5025695;28;20233;-80
2023/09/03 09:15:03;;;;;;;16.92;5.18;;;;;;;;;;5003180;28;20237;-80
2023/09/03 09:17:43;;;;;;;16.70;3.75;;;;;;;;;;5018292;28;20249;-80
2023/09/03 09:20:12;;;;;;;20.85;4.80;;;;;;;;;;5002241;28;20242;-80
2023/09/03 09:22:39;;;;;;;29.77;6.43;;;;;;;;;;4988927;28;20245;-80
2023/09/03 09:25:07;;;;;;;25.17;5.40;;;;;;;;;;5014200;28;20680;-80
2023/09/03 09:27:40;;;;;;;26.20;22.42;;;;;;;;;;5029394;28;20318;-80
2023/09/03 09:30:15;;;;;;;82.30;76.25;;;;;;;;;;5016204;28;20225;-80
2023/09/03 09:32:42;;;;;;;65.80;50.63;;;;;;;;;;5008671;28;20245;-81
2023/09/03 09:35:10;;;;;;;31.25;27.35;;;;;;;;;;5019328;28;20230;-79
2023/09/03 09:37:38;;;;;;;29.02;17.70;;;;;;;;;;5016272;28;20226;-79
2023/09/03 09:40:07;;;;;;;22.23;9.63;;;;;;;;;;5015671;28;20312;-79
2023/09/03 09:42:34;;;;;;;22.98;11.32;;;;;;;;;;5011939;28;20261;-79
2023/09/03 09:45:01;;;;;;;18.80;7.07;;;;;;;;;;5009461;28;20231;-79
2023/09/03 09:47:28;;;;;;;25.48;5.25;;;;;;;;;;5003494;28;20230;-80
2023/09/03 09:49:55;;;;;;;35.03;8.10;;;;;;;;;;5007999;28;20234;-79
2023/09/03 09:52:32;;;;;;;21.85;4.95;;;;;;;;;;5014780;28;20722;-80
2023/09/03 09:54:59;;;;;;;20.23;7.15;;;;;;;;;;5004781;28;20639;-82
2023/09/03 09:57:27;;;;;;;23.77;5.05;;;;;;;;;;5010035;28;20234;-80
2023/09/03 10:00:02;;;;;;;44.15;10.82;;;;;;;;;;4999853;28;20226;-80
2023/09/03 10:02:29;;;;;;;26.48;10.02;;;;;;;;;;5006895;28;20228;-82
2023/09/03 10:04:56;;;;;;;46.05;12.25;;;;;;;;;;5013458;28;20238;-80
2023/09/03 10:07:22;;;;;;;23.80;5.28;;;;;;;;;;5013907;28;20226;-81
2023/09/03 10:09:49;;;;;;;48.45;11.70;;;;;;;;;;5012507;28;20285;-80
2023/09/03 10:12:16;;;;;;;19.98;4.57;;;;;;;;;;5016300;28;20234;-80
2023/09/03 10:14:42;;;;;;;41.03;9.68;;;;;;;;;;5008182;28;20234;-80
2023/09/03 10:17:10;;;;;;;18.52;3.80;;;;;;;;;;5018937;28;20237;-81
2023/09/03 10:19:39;;;;;;;40.75;9.65;;;;;;;;;;5019778;28;20229;-81
2023/09/03 10:22:09;;;;;;;20.38;4.95;;;;;;;;;;5010493;28;20253;-80
2023/09/03 10:24:36;;;;;;;26.55;5.70;;;;;;;;;;5009214;28;20238;-80
2023/09/03 10:27:04;;;;;;;17.67;4.05;;;;;;;;;;5013820;28;20237;-83
2023/09/03 10:29:32;;;;;;;28.83;5.97;;;;;;;;;;5006117;28;20226;-82
2023/09/03 10:32:00;;;;;;;23.00;4.90;;;;;;;;;;5013227;28;20241;-81
2023/09/03 10:34:30;;;;;;;21.20;4.35;;;;;;;;;;4939208;28;20243;-80
2023/09/03 10:37:06;;;;;;;45.33;11.27;;;;;;;;;;4990535;28;20246;-81
2023/09/03 10:39:37;;;;;;;29.95;6.13;;;;;;;;;;5017288;28;20254;-80
2023/09/03 10:42:23;;;;;;;17.25;3.90;;;;;;;;;;5017343;28;20230;-80
2023/09/03 10:44:51;;;;;;;49.42;11.07;;;;;;;;;;5017154;28;20307;-82
2023/09/03 10:47:18;;;;;;;19.38;3.97;;;;;;;;;;5021265;28;20226;-80
2023/09/03 10:49:46;;;;;;;40.45;10.55;;;;;;;;;;5012474;28;20218;-80
2023/09/03 10:52:28;;;;;;;20.00;4.55;;;;;;;;;;5021446;28;20238;-80
2023/09/03 10:55:13;;;;;;;31.92;8.55;;;;;;;;;;4955260;28;20231;-81
2023/09/03 10:57:41;;;;;;;28.27;6.15;;;;;;;;;;4906006;28;20669;-79
2023/09/03 11:00:08;;;;;;;14.10;3.03;;;;;;;;;;5017070;28;20227;-80
2023/09/03 11:02:36;;;;;;;21.45;4.40;;;;;;;;;;5018367;28;20304;-78
2023/09/03 11:05:13;;;;;;;16.65;3.47;;;;;;;;;;5018643;28;20636;-79
2023/09/03 11:07:40;;;;;;;19.60;4.40;;;;;;;;;;5026157;28;20226;-81
2023/09/03 11:10:27;;;;;;;17.77;3.70;;;;;;;;;;5033003;28;20256;-80
2023/09/03 11:12:56;;;;;;;40.35;9.18;;;;;;;;;;5019575;28;20226;-80
2023/09/03 11:15:22;;;;;;;16.50;4.18;;;;;;;;;;5031222;28;20325;-81
2023/09/03 11:17:56;;;;;;;38.75;8.60;;;;;;;;;;5023099;28;20226;-81
2023/09/03 11:20:27;;;;;;;18.92;4.15;;;;;;;;;;5021360;28;20238;-81
2023/09/03 11:23:14;;;;;;;19.13;8.48;;;;;;;;;;5021559;28;20753;-81
2023/09/03 11:25:43;;;;;;;31.45;9.73;;;;;;;;;;5021307;28;20230;-80
2023/09/03 11:28:13;;;;;;;19.42;8.27;;;;;;;;;;5027879;28;20264;-80
2023/09/03 11:30:41;;;;;;;35.17;29.02;;;;;;;;;;5023167;28;20292;-79
2023/09/03 11:33:11;;;;;;;166.05;155.52;;;;;;;;;;5019492;28;20234;-79
2023/09/03 11:35:42;;;;;;;164.60;153.10;;;;;;;;;;5024109;28;20244;-80
2023/09/03 11:38:09;;;;;;;63.83;58.35;;;;;;;;;;5019962;28;20229;-80
2023/09/03 11:40:35;;;;;;;68.57;63.20;;;;;;;;;;5026199;28;20229;-80
2023/09/03 11:43:02;;;;;;;109.22;101.63;;;;;;;;;;5026296;28;20233;-79
2023/09/03 11:45:29;;;;;;;19.13;8.00;;;;;;;;;;5021612;28;20223;-81
2023/09/03 11:47:57;;;;;;;51.40;11.70;;;;;;;;;;5015708;28;20219;-79
2023/09/03 11:50:23;;;;;;;12.55;2.80;;;;;;;;;;5015628;28;20729;-79
2023/09/03 11:53:00;;;;;;;30.63;7.63;;;;;;;;;;5019962;28;20226;-79
2023/09/03 11:55:27;;;;;;;10.10;2.83;;;;;;;;;;5011604;28;20296;-79
2023/09/03 11:57:55;;;;;;;37.45;9.20;;;;;;;;;;5017053;28;20230;-80
2023/09/03 12:00:22;;;;;;;14.88;3.25;;;;;;;;;;5020632;28;20222;-79
2023/09/03 12:02:49;;;;;;;32.92;8.05;;;;;;;;;;5014345;28;20218;-80
2023/09/03 12:05:16;;;;;;;13.27;3.00;;;;;;;;;;5019203;28;20234;-80
2023/09/03 12:07:42;;;;;;;35.80;8.50;;;;;;;;;;5013416;28;20788;-80
2023/09/03 12:10:09;;;;;;;18.27;3.88;;;;;;;;;;5017126;28;20674;-80
2023/09/03 12:12:36;;;;;;;19.13;4.10;;;;;;;;;;5016796;28;20625;-80
2023/09/03 12:15:16;;;;;;;15.38;3.50;;;;;;;;;;5008502;28;20596;-80
2023/09/03 12:17:42;;;;;;;30.73;7.45;;;;;;;;;;5014995;28;20234;-83
2023/09/03 12:20:09;;;;;;;15.35;3.40;;;;;;;;;;5023132;28;20313;-80
2023/09/03 12:22:35;;;;;;;17.27;3.78;;;;;;;;;;5021161;28;20235;-80
2023/09/03 12:25:03;;;;;;;14.90;3.28;;;;;;;;;;5012249;28;20239;-79
2023/09/03 12:27:30;;;;;;;17.10;3.85;;;;;;;;;;5018647;28;20238;-82
2023/09/03 12:29:56;;;;;;;29.63;7.57;;;;;;;;;;4988856;28;20594;-80
2023/09/03 12:32:36;;;;;;;12.65;4.10;;;;;;;;;;5011082;28;20244;-81
2023/09/03 12:35:16;;;;;;;9.48;2.78;;;;;;;;;;5010989;28;20242;-80
2023/09/03 12:37:42;;;;;;;24.02;6.28;;;;;;;;;;5018085;28;20226;-80
2023/09/03 12:40:10;;;;;;;12.05;2.92;;;;;;;;;;5019864;28;20238;-81
2023/09/03 12:42:37;;;;;;;28.23;6.70;;;;;;;;;;5017767;28;20389;-80
2023/09/03 12:45:03;;;;;;;12.27;3.22;;;;;;;;;;5014857;28;20237;-79
2023/09/03 12:47:30;;;;;;;14.63;3.58;;;;;;;;;;5015223;28;20226;-79
2023/09/03 12:49:57;;;;;;;34.97;9.50;;;;;;;;;;5009486;28;20247;-79
2023/09/03 12:52:23;;;;;;;12.45;2.85;;;;;;;;;;5017939;28;20234;-80
2023/09/03 12:54:50;;;;;;;33.15;8.15;;;;;;;;;;5023931;28;20227;-81
2023/09/03 12:57:17;;;;;;;20.77;4.68;;;;;;;;;;5015023;28;20238;-79
2023/09/03 12:59:43;;;;;;;27.60;7.15;;;;;;;;;;5014457;28;20234;-79
2023/09/03 13:02:10;;;;;;;17.88;4.10;;;;;;;;;;5016927;28;20231;-79
2023/09/03 13:04:36;;;;;;;13.68;3.47;;;;;;;;;;5024473;28;20299;-80
2023/09/03 13:07:03;;;;;;;19.02;4.72;;;;;;;;;;5006958;28;20253;-80
2023/09/03 13:09:32;;;;;;;26.80;6.30;;;;;;;;;;5017694;28;20288;-82
2023/09/03 13:11:59;;;;;;;13.43;3.70;;;;;;;;;;5007269;28;20293;-79
2023/09/03 13:14:25;;;;;;;13.50;3.33;;;;;;;;;;5024413;28;20230;-81
2023/09/03 13:16:52;;;;;;;32.80;8.52;;;;;;;;;;5009472;28;20230;-79
2023/09/03 13:19:19;;;;;;;14.20;3.15;;;;;;;;;;5014744;28;20226;-82
2023/09/03 13:21:45;;;;;;;27.23;7.18;;;;;;;;;;5013866;28;20563;-80
2023/09/03 13:24:12;;;;;;;11.77;3.15;;;;;;;;;;5015077;28;20256;-82
2023/09/03 13:26:38;;;;;;;13.77;3.13;;;;;;;;;;5012741;28;20222;-82
2023/09/03 13:29:05;;;;;;;13.75;3.15;;;;;;;;;;5008317;28;20689;-80
2023/09/03 13:31:32;;;;;;;14.82;3.45;;;;;;;;;;5020774;28;20238;-80
2023/09/03 13:33:58;;;;;;;16.92;4.70;;;;;;;;;;5011121;28;20464;-79
2023/09/03 13:36:25;;;;;;;15.10;3.25;;;;;;;;;;5018037;28;20238;-81
2023/09/03 13:38:52;;;;;;;34.75;8.80;;;;;;;;;;5011581;28;20238;-79
2023/09/03 13:41:19;;;;;;;14.93;3.53;;;;;;;;;;5020618;28;20311;-79
2023/09/03 13:43:47;;;;;;;31.02;8.27;;;;;;;;;;5009068;28;20285;-79
2023/09/03 13:46:14;;;;;;;38.10;3.25;;;;;;;;;;5018048;28;20305;-80
2023/09/03 13:48:41;;;;;;;15.98;4.45;;;;;;;;;;5022329;28;20229;-79
2023/09/03 13:51:11;;;;;;;9.77;2.47;;;;;;;;;;5022729;28;20226;-80
2023/09/03 13:53:38;;;;;;;12.38;3.17;;;;;;;;;;5029291;28;20218;-80
2023/09/03 13:56:06;;;;;;;9.35;2.55;;;;;;;;;;5018169;28;20677;-79
2023/09/03 13:58:33;;;;;;;13.10;3.53;;;;;;;;;;5017464;28;20234;-82
2023/09/03 14:01:05;;;;;;;10.20;3.00;;;;;;;;;;5013036;28;20245;-80
2023/09/03 14:03:32;;;;;;;14.60;3.83;;;;;;;;;;5019199;28;20268;-78
2023/09/03 14:06:05;;;;;;;13.15;3.60;;;;;;;;;;5004548;28;22667;-80
2023/09/03 14:08:32;;;;;;;12.15;3.22;;;;;;;;;;5010988;28;20223;-79
2023/09/03 14:10:59;;;;;;;10.13;2.95;;;;;;;;;;4995300;28;20977;-78
2023/09/03 14:13:27;;;;;;;10.02;2.92;;;;;;;;;;5010953;28;20245;-79
2023/09/03 14:15:54;;;;;;;24.08;6.65;;;;;;;;;;5011758;28;20253;-78
2023/09/03 14:18:20;;;;;;;11.07;2.97;;;;;;;;;;5017747;28;20218;-79
2023/09/03 14:20:47;;;;;;;17.13;5.05;;;;;;;;;;5007788;28;20230;-78
2023/09/03 14:23:14;;;;;;;11.88;3.10;;;;;;;;;;5015148;28;20318;-78
2023/09/03 14:25:41;;;;;;;16.10;4.20;;;;;;;;;;5007319;28;20241;-79